Time;durP1;ratioP1;P1;durP2;ratioP2;P2;SDS_P1;SDS_P2;PMS_P1;PMS_P2;Temp;Humidity;BMP_temperature;BMP_pressure;BME280_temperature;BME280_humidity;BME280_pressure;Samples;Min_cycle;Max_cycle;Signal;HPM_P1;HPM_P2
2022/11/23 00:02:00;;;;;;;;;4.00;2.00;;;;;20.97;38.34;99470.44;5056434;28;45533;-55
2022/11/23 00:04:26;;;;;;;;;1.75;1.75;;;;;20.98;38.47;99464.22;5054831;28;45215;-56
2022/11/23 00:06:51;;;;;;;;;3.00;3.00;;;;;20.98;38.08;99456.31;5056308;28;45366;-57
2022/11/23 00:09:16;;;;;;;;;2.00;2.00;;;;;21.00;38.69;99461.44;5056191;28;45343;-57
2022/11/23 00:11:41;;;;;;;;;2.00;2.00;;;;;20.98;38.34;99448.41;5055585;28;67963;-57
2022/11/23 00:14:07;;;;;;;;;2.75;1.00;;;;;21.00;38.37;99451.72;5056452;28;55434;-57
2022/11/23 00:16:32;;;;;;;;;4.50;2.00;;;;;20.98;38.33;99443.16;5066847;28;45191;-56
2022/11/23 00:19:00;;;;;;;;;3.75;2.00;;;;;21.00;38.59;99441.19;5075094;28;44857;-56
2022/11/23 00:21:28;;;;;;;;;4.00;4.00;;;;;21.01;38.54;99440.25;5056655;28;47507;-56
2022/11/23 00:23:53;;;;;;;;;2.00;2.00;;;;;21.02;38.26;99438.47;5056178;28;45328;-54
2022/11/23 00:26:20;;;;;;;;;4.25;3.00;;;;;21.03;37.99;99447.19;5056311;28;45335;-56
2022/11/23 00:28:46;;;;;;;;;5.00;2.00;;;;;21.00;38.18;99438.56;5060627;28;45387;-55
2022/11/23 00:31:14;;;;;;;;;2.00;2.00;;;;;21.04;38.12;99448.88;5067396;28;45366;-56
2022/11/23 00:33:40;;;;;;;;;2.00;2.00;;;;;21.04;38.24;99446.22;5058515;28;45470;-57
2022/11/23 00:36:10;;;;;;;;;3.00;3.00;;;;;21.04;38.20;99449.72;5059723;28;45331;-57
2022/11/23 00:38:36;;;;;;;;;3.00;3.00;;;;;21.04;38.43;99436.56;5060948;28;45350;-57
2022/11/23 00:41:05;;;;;;;;;2.75;2.00;;;;;21.05;38.33;99440.88;5060935;28;45941;-57
2022/11/23 00:43:31;;;;;;;;;3.25;2.50;;;;;21.06;38.12;99444.31;5063299;28;45301;-57
2022/11/23 00:46:16;;;;;;;;;5.75;2.75;;;;;21.06;38.36;99437.25;5062056;28;45437;-56
2022/11/23 00:48:43;;;;;;;;;2.00;2.00;;;;;21.03;38.33;99423.47;5056451;28;45367;-54
2022/11/23 00:51:11;;;;;;;;;2.00;1.75;;;;;21.07;38.02;99433.66;5063749;28;46289;-56
2022/11/23 00:53:37;;;;;;;;;4.75;3.00;;;;;21.07;37.80;99432.81;5078725;28;45268;-57
2022/11/23 00:56:03;;;;;;;;;2.75;2.00;;;;;21.08;38.07;99429.22;5077183;28;45288;-57
2022/11/23 00:58:29;;;;;;;;;2.00;2.00;;;;;21.09;38.14;99428.28;5062318;28;45350;-57
2022/11/23 01:01:09;;;;;;;;;4.50;3.00;;;;;21.09;37.88;99428.28;5067355;28;47043;-59
2022/11/23 01:03:37;;;;;;;;;3.00;3.00;;;;;21.08;37.95;99423.97;5065110;28;45835;-58
2022/11/23 01:06:08;;;;;;;;;2.00;2.00;;;;;21.09;38.22;99429.09;5062636;28;45323;-57
2022/11/23 01:08:34;;;;;;;;;5.00;2.00;;;;;21.07;38.24;99431.00;5066449;28;45209;-57
2022/11/23 01:11:01;;;;;;;;;1.75;1.75;;;;;21.10;38.05;99424.69;5080221;28;45260;-57
2022/11/23 01:13:27;;;;;;;;;2.00;2.00;;;;;21.09;38.13;99420.38;5083057;28;45030;-56
2022/11/23 01:15:52;;;;;;;;;7.25;3.00;;;;;21.09;38.27;99433.53;5081583;28;44844;-55
2022/11/23 01:18:18;;;;;;;;;4.00;2.00;;;;;21.12;38.09;99430.63;5070339;28;45302;-56
2022/11/23 01:20:43;;;;;;;;;6.25;3.00;;;;;21.11;38.16;99418.47;5062561;28;46000;-56
2022/11/23 01:23:08;;;;;;;;;3.50;2.00;;;;;21.11;38.03;99413.19;5060403;28;45337;-56
2022/11/23 01:25:35;;;;;;;;;1.00;1.00;;;;;21.12;38.40;99417.47;5059281;28;45342;-56
2022/11/23 01:28:00;;;;;;;;;2.25;2.25;;;;;21.13;38.18;99414.72;5059342;28;45502;-56
2022/11/23 01:30:25;;;;;;;;;3.00;3.00;;;;;21.13;38.33;99401.56;5058830;28;46058;-56
2022/11/23 01:32:51;;;;;;;;;3.75;2.75;;;;;21.14;37.93;99389.22;5058680;28;45302;-56
2022/11/23 01:35:16;;;;;;;;;3.67;2.00;;;;;21.14;37.85;99391.84;5058480;28;58367;-55
2022/11/23 01:37:41;;;;;;;;;4.00;3.00;;;;;21.14;37.92;99386.56;5060906;28;51081;-56
2022/11/23 01:40:07;;;;;;;;;2.25;2.25;;;;;21.15;37.93;99385.63;5060964;28;55414;-56
2022/11/23 01:42:53;;;;;;;;;4.00;3.25;;;;;21.15;37.81;99381.19;5060414;28;45984;-56
2022/11/23 01:45:41;;;;;;;;;2.50;2.25;;;;;21.16;38.11;99380.25;5060030;28;45717;-55
2022/11/23 01:48:20;;;;;;;;;2.50;2.00;;;;;21.16;38.04;99379.38;5060770;28;45513;-56
2022/11/23 01:50:48;;;;;;;;;3.00;2.25;;;;;21.16;38.24;99376.75;5059880;28;46258;-55
2022/11/23 01:53:15;;;;;;;;;3.00;2.00;;;;;21.16;38.13;99374.97;5060027;28;45901;-56
2022/11/23 01:55:43;;;;;;;;;4.00;3.00;;;;;21.15;38.06;99365.41;5061178;28;45352;-55
2022/11/23 01:58:10;;;;;;;;;3.00;3.00;;;;;21.17;37.84;99365.25;5060608;28;45464;-56
2022/11/23 02:00:35;;;;;;;;;2.00;2.00;;;;;21.18;38.12;99374.84;5058213;28;45411;-56
2022/11/23 02:03:03;;;;;;;;;3.75;1.75;;;;;21.18;38.24;99372.19;5067294;28;45247;-55
2022/11/23 02:05:36;;;;;;;;;6.00;3.50;;;;;21.17;37.93;99363.44;5064528;28;45209;-56
2022/11/23 02:08:02;;;;;;;;;2.00;2.00;;;;;21.20;37.96;99374.69;5059453;28;45301;-56
2022/11/23 02:10:30;;;;;;;;;3.75;2.00;;;;;21.17;37.94;99366.09;5059256;28;45406;-56
2022/11/23 02:12:59;;;;;;;;;3.00;3.00;;;;;21.17;37.91;99355.53;5067524;28;45114;-55
2022/11/23 02:15:24;;;;;;;;;2.00;2.00;;;;;21.21;37.77;99358.78;5076831;28;45338;-55
2022/11/23 02:17:50;;;;;;;;;3.00;2.00;;;;;21.21;37.96;99355.31;5061842;28;45600;-56
2022/11/23 02:20:17;;;;;;;;;6.00;2.00;;;;;21.20;37.97;99358.91;5078688;28;45070;-56
2022/11/23 02:22:43;;;;;;;;;3.25;2.00;;;;;21.23;37.72;99358.66;5080625;28;45221;-56
2022/11/23 02:25:21;;;;;;;;;2.25;1.75;;;;;21.21;38.12;99358.78;5064761;28;45290;-55
2022/11/23 02:27:48;;;;;;;;;3.00;2.00;;;;;21.24;37.78;99360.31;5058393;28;45509;-55
2022/11/23 02:30:13;;;;;;;;;2.00;2.00;;;;;21.21;37.71;99357.94;5061705;28;46488;-56
2022/11/23 02:32:39;;;;;;;;;2.50;2.50;;;;;21.24;37.47;99355.88;5058839;28;45397;-55
2022/11/23 02:35:04;;;;;;;;;2.00;1.25;;;;;21.23;37.65;99356.03;5067779;28;45347;-55
2022/11/23 02:37:29;;;;;;;;;2.25;2.00;;;;;21.24;38.12;99353.25;5079114;28;45370;-56
2022/11/23 02:39:58;;;;;;;;;2.00;2.00;;;;;21.24;37.82;99349.78;5070305;28;45340;-56
2022/11/23 02:42:25;;;;;;;;;3.00;2.25;;;;;21.26;37.89;99342.59;5076874;28;45240;-55
2022/11/23 02:45:14;;;;;;;;;2.00;2.00;;;;;21.26;37.69;99346.06;5073128;28;45276;-56
2022/11/23 02:47:40;;;;;;;;;4.25;2.00;;;;;21.25;37.80;99338.28;5060729;28;45313;-56
2022/11/23 02:50:05;;;;;;;;;2.50;2.00;;;;;21.26;38.13;99338.16;5063362;28;46020;-56
2022/11/23 02:52:31;;;;;;;;;2.75;1.50;;;;;21.26;37.81;99334.69;5057286;28;45335;-56
2022/11/23 02:54:56;;;;;;;;;2.50;2.50;;;;;21.25;38.06;99336.47;5057396;28;45417;-57
2022/11/23 02:57:21;;;;;;;;;2.50;2.00;;;;;21.27;37.87;99334.56;5057733;28;45495;-57
2022/11/23 02:59:46;;;;;;;;;2.00;2.00;;;;;21.27;38.06;99329.28;5057467;28;46339;-56
2022/11/23 03:02:12;;;;;;;;;2.00;2.00;;;;;21.28;37.87;99330.97;5056938;28;48788;-56
2022/11/23 03:04:37;;;;;;;;;3.00;1.00;;;;;21.28;37.63;99325.69;5055106;28;64797;-56
2022/11/23 03:07:02;;;;;;;;;2.25;2.00;;;;;21.29;38.01;99318.59;5058234;28;45386;-56
2022/11/23 03:09:28;;;;;;;;;3.00;2.00;;;;;21.28;37.91;99315.16;5058264;28;45931;-59
2022/11/23 03:11:53;;;;;;;;;1.50;1.50;;;;;21.29;37.86;99322.09;5056548;28;45304;-56
2022/11/23 03:14:20;;;;;;;;;2.00;2.00;;;;;21.28;37.86;99315.16;5057407;28;45378;-57
2022/11/23 03:16:45;;;;;;;;;3.75;3.75;;;;;21.28;37.82;99309.88;5057617;28;45530;-56
2022/11/23 03:19:10;;;;;;;;;2.00;2.00;;;;;21.30;37.79;99307.97;5056788;28;45367;-56
2022/11/23 03:21:36;;;;;;;;;2.00;2.00;;;;;21.31;37.90;99306.16;5056430;28;55508;-56
2022/11/23 03:24:01;;;;;;;;;2.00;2.00;;;;;21.30;37.73;99299.19;5056520;28;51308;-56
2022/11/23 03:26:26;;;;;;;;;3.00;3.00;;;;;21.31;37.81;99292.97;5057327;28;45287;-56
2022/11/23 03:28:52;;;;;;;;;2.00;2.00;;;;;21.31;37.93;99290.34;5056465;28;67850;-55
2022/11/23 03:31:17;;;;;;;;;4.00;2.25;;;;;21.33;37.93;99300.78;5056608;28;57014;-55
2022/11/23 03:33:42;;;;;;;;;2.25;1.25;;;;;21.30;37.88;99293.94;5055718;28;45222;-55
2022/11/23 03:36:08;;;;;;;;;3.00;2.00;;;;;21.32;37.94;99297.28;5066347;28;45561;-55
2022/11/23 03:38:33;;;;;;;;;1.50;1.50;;;;;21.30;38.04;99292.16;5061925;28;47282;-56
2022/11/23 03:40:58;;;;;;;;;3.00;2.00;;;;;21.34;37.77;99297.16;5057465;28;45452;-55
2022/11/23 03:43:24;;;;;;;;;5.00;2.00;;;;;21.34;37.70;99291.88;5057155;28;45341;-56
2022/11/23 03:45:49;;;;;;;;;4.25;2.00;;;;;21.31;37.64;99275.38;5057233;28;45532;-57
2022/11/23 03:48:15;;;;;;;;;2.00;2.00;;;;;21.33;37.40;99279.69;5056690;28;47391;-57
2022/11/23 03:50:40;;;;;;;;;3.50;2.00;;;;;21.34;37.96;99281.34;5056679;28;45339;-57
2022/11/23 03:53:05;;;;;;;;;5.00;2.75;;;;;21.34;38.06;99290.09;5056690;28;45342;-57
2022/11/23 03:55:32;;;;;;;;;5.50;4.00;;;;;21.33;37.89;99279.69;5056778;28;45580;-56
2022/11/23 03:58:00;;;;;;;;;7.00;6.75;;;;;21.34;37.69;99281.34;5056372;28;45476;-57
2022/11/23 04:00:27;;;;;;;;;9.75;7.00;;;;;21.31;37.87;99271.88;5056661;28;45185;-57
2022/11/23 04:02:52;;;;;;;;;6.50;6.25;;;;;21.33;37.85;99274.41;5057919;28;45198;-55
2022/11/23 04:05:17;;;;;;;;;5.75;5.75;;;;;21.30;37.84;99271.06;5078758;28;45225;-55
2022/11/23 04:07:45;;;;;;;;;7.00;7.00;;;;;21.33;37.63;99271.78;5064045;28;45511;-56
2022/11/23 04:10:10;;;;;;;;;6.75;5.00;;;;;21.29;37.84;99265.91;5056555;28;45832;-53
2022/11/23 04:12:35;;;;;;;;;5.00;5.00;;;;;21.29;37.67;99261.50;5055875;28;45321;-55
2022/11/23 04:15:01;;;;;;;;;6.00;5.67;;;;;21.28;37.78;99267.72;5056061;28;47649;-56
2022/11/23 04:17:26;;;;;;;;;6.25;3.25;;;;;21.27;37.60;99271.31;5056028;28;45418;-57
2022/11/23 04:19:51;;;;;;;;;3.25;3.25;;;;;21.24;37.67;99266.28;5056585;28;45316;-55
2022/11/23 04:22:17;;;;;;;;;6.00;3.75;;;;;21.22;37.82;99262.13;5056357;28;45295;-54
2022/11/23 04:24:42;;;;;;;;;3.00;3.00;;;;;21.20;37.44;99257.00;5057276;28;54475;-56
2022/11/23 04:27:07;;;;;;;;;4.00;4.00;;;;;21.21;37.55;99266.56;5058734;28;67676;-56
2022/11/23 04:29:32;;;;;;;;;6.00;4.67;;;;;21.21;37.71;99260.44;5060621;28;54145;-57
2022/11/23 04:31:58;;;;;;;;;4.33;4.00;;;;;21.16;37.85;99259.06;5064612;28;55493;-56
2022/11/23 04:34:23;;;;;;;;;4.00;4.00;;;;;21.17;37.61;99254.59;5064925;28;53450;-55
2022/11/23 04:36:48;;;;;;;;;3.75;3.00;;;;;21.15;37.72;99248.63;5064720;28;50650;-55
2022/11/23 04:39:14;;;;;;;;;3.00;3.00;;;;;21.15;37.81;99251.25;5062244;28;50093;-55
2022/11/23 04:41:39;;;;;;;;;4.00;3.00;;;;;21.12;37.72;99243.59;5061793;28;45364;-55
2022/11/23 04:44:05;;;;;;;;;5.00;3.25;;;;;21.12;37.86;99238.34;5085621;28;44730;-56
2022/11/23 04:46:31;;;;;;;;;4.00;4.00;;;;;21.11;37.73;99241.97;5078969;28;46434;-55
2022/11/23 04:48:56;;;;;;;;;4.50;3.00;;;;;21.10;37.78;99237.66;5060974;28;45330;-55
2022/11/23 04:51:22;;;;;;;;;4.00;3.00;;;;;21.08;37.89;99234.31;5060569;28;51435;-55
2022/11/23 04:53:47;;;;;;;;;3.25;2.75;;;;;21.08;37.75;99240.38;5068030;28;45306;-56
2022/11/23 04:56:13;;;;;;;;;4.00;3.25;;;;;21.07;37.77;99241.34;5079878;28;61679;-55
2022/11/23 04:58:38;;;;;;;;;4.00;3.25;;;;;21.06;37.84;99230.94;5079139;28;45312;-56
2022/11/23 05:01:05;;;;;;;;;2.00;2.00;;;;;21.05;37.79;99226.66;5060295;28;45304;-56
2022/11/23 05:03:33;;;;;;;;;4.25;2.25;;;;;21.01;37.67;99221.63;5060001;28;45389;-56
2022/11/23 05:06:00;;;;;;;;;4.00;4.00;;;;;21.01;37.95;99229.53;5059514;28;47094;-55
2022/11/23 05:08:25;;;;;;;;;4.00;2.50;;;;;20.99;37.67;99231.47;5066997;28;45723;-56
2022/11/23 05:10:50;;;;;;;;;3.50;3.00;;;;;20.96;37.96;99221.19;5083005;28;53194;-57
2022/11/23 05:13:15;;;;;;;;;2.50;2.50;;;;;20.97;37.60;99222.84;5085066;28;44809;-56
2022/11/23 05:15:41;;;;;;;;;4.00;3.00;;;;;20.95;37.88;99224.78;5062817;28;64505;-57
2022/11/23 05:18:06;;;;;;;;;4.25;4.25;;;;;20.94;38.01;99225.75;5059440;28;48085;-57
2022/11/23 05:20:33;;;;;;;;;2.50;2.00;;;;;20.92;37.79;99219.75;5059324;28;45296;-57
2022/11/23 05:22:58;;;;;;;;;4.00;2.50;;;;;20.92;37.80;99224.19;5058972;28;45451;-57
2022/11/23 05:25:24;;;;;;;;;3.00;2.25;;;;;20.91;38.03;99228.63;5059084;28;49482;-56
2022/11/23 05:27:51;;;;;;;;;2.25;2.25;;;;;20.89;38.19;99229.72;5058772;28;45470;-56
2022/11/23 05:30:17;;;;;;;;;4.00;2.50;;;;;20.86;38.02;99222.91;5058745;28;45387;-56
2022/11/23 05:32:42;;;;;;;;;1.50;1.50;;;;;20.87;38.13;99229.00;5059328;28;45449;-56
2022/11/23 05:35:08;;;;;;;;;3.75;3.00;;;;;20.85;38.40;99232.59;5058531;28;46808;-56
2022/11/23 05:37:33;;;;;;;;;2.00;2.00;;;;;20.84;38.03;99238.00;5059632;28;45224;-56
2022/11/23 05:39:59;;;;;;;;;3.75;3.00;;;;;20.81;38.37;99233.81;5061874;28;45237;-55
2022/11/23 05:42:24;;;;;;;;;2.00;2.00;;;;;20.81;38.30;99223.28;5065780;28;45433;-57
2022/11/23 05:44:50;;;;;;;;;2.25;2.25;;;;;20.80;37.88;99224.25;5084839;28;46298;-57
2022/11/23 05:47:15;;;;;;;;;3.25;2.00;;;;;20.79;38.35;99225.22;5084945;28;46740;-56
2022/11/23 05:49:40;;;;;;;;;4.25;2.75;;;;;20.77;37.79;99221.03;5081371;28;44639;-57
2022/11/23 05:52:05;;;;;;;;;2.25;2.25;;;;;20.76;38.58;99220.19;5073562;28;45447;-57
2022/11/23 05:54:31;;;;;;;;;2.50;2.50;;;;;20.74;38.42;99216.84;5062063;28;46011;-56
2022/11/23 05:56:56;;;;;;;;;2.00;2.00;;;;;20.74;38.24;99218.63;5065973;28;66480;-57
2022/11/23 05:59:21;;;;;;;;;4.50;2.00;;;;;20.72;38.29;99212.63;5066953;28;45704;-57
2022/11/23 06:01:47;;;;;;;;;3.25;2.50;;;;;20.70;37.95;99216.22;5059815;28;45275;-56
2022/11/23 06:04:12;;;;;;;;;1.75;1.25;;;;;20.68;38.03;99210.25;5059079;28;46986;-57
2022/11/23 06:06:37;;;;;;;;;2.00;2.00;;;;;20.68;38.03;99204.97;5059109;28;45406;-55
2022/11/23 06:09:03;;;;;;;;;2.00;2.00;;;;;20.67;38.21;99210.38;5058234;28;57410;-56
2022/11/23 06:11:30;;;;;;;;;3.00;2.00;;;;;20.64;38.50;99208.00;5058642;28;45603;-55
2022/11/23 06:13:55;;;;;;;;;3.00;2.25;;;;;20.64;38.19;99208.84;5057985;28;46155;-56
2022/11/23 06:16:20;;;;;;;;;2.00;2.00;;;;;20.63;38.40;99209.81;5057958;28;45462;-56
2022/11/23 06:18:46;;;;;;;;;2.75;2.75;;;;;20.62;38.20;99212.53;5056802;28;45385;-57
2022/11/23 06:21:11;;;;;;;;;2.00;1.00;;;;;20.59;38.14;99205.75;5057503;28;53160;-56
2022/11/23 06:23:36;;;;;;;;;1.75;1.75;;;;;20.57;38.41;99205.03;5057660;28;45400;-55
2022/11/23 06:26:02;;;;;;;;;2.00;2.00;;;;;20.57;38.09;99205.03;5057749;28;45373;-56
2022/11/23 06:28:28;;;;;;;;;1.50;1.50;;;;;20.55;38.24;99192.00;5058141;28;45408;-56
2022/11/23 06:30:54;;;;;;;;;3.00;3.00;;;;;20.55;38.19;99193.81;5058112;28;45288;-55
2022/11/23 06:33:19;;;;;;;;;3.50;2.00;;;;;20.52;38.70;99186.97;5057716;28;46202;-55
2022/11/23 06:35:53;;;;;;;;;2.00;2.00;;;;;20.53;38.77;99191.28;5058157;28;45233;-54
2022/11/23 06:38:18;;;;;;;;;3.00;1.75;;;;;20.51;38.53;99187.09;5061828;28;45256;-55
2022/11/23 06:40:43;;;;;;;;;3.00;3.00;;;;;20.51;38.44;99176.59;5065874;28;45284;-55
2022/11/23 06:43:09;;;;;;;;;2.00;2.00;;;;;20.47;38.28;99170.75;5057791;28;62021;-55
2022/11/23 06:45:34;;;;;;;;;1.00;1.00;;;;;20.49;38.43;99178.50;5057552;28;45327;-55
2022/11/23 06:47:59;;;;;;;;;2.50;2.00;;;;;20.45;38.36;99161.31;5056661;28;47090;-56
2022/11/23 06:50:25;;;;;;;;;2.33;2.00;;;;;20.43;38.30;99152.69;5056957;28;60845;-57
2022/11/23 06:52:55;;;;;;;;;3.75;1.75;;;;;20.44;38.52;99167.53;5057184;28;47024;-57
2022/11/23 06:55:20;;;;;;;;;2.50;2.00;;;;;20.46;38.35;99168.22;5057792;28;45390;-56
2022/11/23 06:57:46;;;;;;;;;2.00;2.00;;;;;20.45;38.48;99158.69;5057715;28;45386;-56
2022/11/23 07:00:11;;;;;;;;;2.00;2.00;;;;;20.44;38.79;99157.00;5057197;28;46958;-56
2022/11/23 07:02:37;;;;;;;;;1.50;1.50;;;;;20.42;38.64;99154.47;5057237;28;45453;-57
2022/11/23 07:05:02;;;;;;;;;0.00;0.00;;;;;20.43;38.24;99150.06;5057278;28;50187;-54
2022/11/23 07:07:27;;;;;;;;;3.00;3.00;;;;;20.42;38.73;99148.38;5057405;28;45277;-55
2022/11/23 07:09:53;;;;;;;;;5.25;2.75;;;;;20.41;38.71;99150.16;5057687;28;45328;-54
2022/11/23 07:12:18;;;;;;;;;1.00;1.00;;;;;20.39;38.74;99150.31;5056481;28;65701;-56
2022/11/23 07:14:43;;;;;;;;;2.00;2.00;;;;;20.37;38.85;99148.75;5057137;28;49994;-53
2022/11/23 07:17:08;;;;;;;;;2.00;2.00;;;;;20.39;38.74;99152.13;5058052;28;45274;-56
2022/11/23 07:19:34;;;;;;;;;1.75;1.75;;;;;20.39;38.70;99158.19;5064205;28;45235;-56
2022/11/23 07:21:59;;;;;;;;;4.00;2.00;;;;;20.40;38.91;99159.03;5063763;28;46203;-56
2022/11/23 07:24:24;;;;;;;;;2.50;1.50;;;;;20.39;39.11;99155.56;5061500;28;45198;-55
2022/11/23 07:26:50;;;;;;;;;4.00;2.00;;;;;20.42;39.26;99154.47;5070477;28;45386;-55
2022/11/23 07:29:15;;;;;;;;;2.00;2.00;;;;;20.45;39.21;99153.41;5084101;28;45319;-57
2022/11/23 07:31:41;;;;;;;;;2.00;2.00;;;;;20.44;38.73;99147.28;5073166;28;45362;-57
2022/11/23 07:34:08;;;;;;;;;4.00;2.00;;;;;20.50;38.79;99159.97;5058274;28;54598;-55
2022/11/23 07:36:33;;;;;;;;;5.50;2.75;;;;;20.55;38.90;99167.47;5058951;28;45305;-55
2022/11/23 07:38:58;;;;;;;;;2.25;2.00;;;;;20.55;38.74;99163.03;5055766;28;45319;-56
2022/11/23 07:41:26;;;;;;;;;2.00;2.00;;;;;20.61;38.74;99166.16;5057917;28;46119;-55
2022/11/23 07:43:51;;;;;;;;;3.00;3.00;;;;;20.60;38.68;99167.94;5056746;28;45831;-52
2022/11/23 07:46:16;;;;;;;;;5.00;2.00;;;;;20.63;38.95;99167.69;5069243;28;54386;-54
2022/11/23 07:48:42;;;;;;;;;2.00;1.00;;;;;20.66;38.81;99166.59;5070605;28;46349;-57
2022/11/23 07:51:07;;;;;;;;;3.00;1.75;;;;;20.65;38.98;99165.78;5056605;28;46117;-55
2022/11/23 07:53:34;;;;;;;;;4.75;3.00;;;;;20.69;38.56;99164.53;5056850;28;45264;-56
2022/11/23 07:56:00;;;;;;;;;2.00;2.00;;;;;20.73;38.93;99159.03;5056533;28;45240;-55
2022/11/23 07:58:25;;;;;;;;;2.25;2.25;;;;;20.74;38.58;99158.06;5056527;28;45235;-56
2022/11/23 08:00:51;;;;;;;;;1.50;1.50;;;;;20.73;38.53;99151.94;5056322;28;46238;-57
2022/11/23 08:03:16;;;;;;;;;2.00;2.00;;;;;20.78;38.35;99164.78;5056452;28;45375;-55
2022/11/23 08:05:41;;;;;;;;;3.75;1.00;;;;;20.78;38.88;99164.78;5056629;28;46003;-56
2022/11/23 08:08:06;;;;;;;;;3.00;2.00;;;;;20.79;38.85;99159.38;5056808;28;45435;-54
2022/11/23 08:10:32;;;;;;;;;2.25;1.00;;;;;20.80;38.88;99171.59;5056408;28;52855;-56
2022/11/23 08:12:58;;;;;;;;;3.75;1.75;;;;;20.80;38.87;99163.69;5060913;28;48228;-56
2022/11/23 08:15:26;;;;;;;;;3.00;1.50;;;;;20.80;38.26;99165.47;5078841;28;44726;-53
2022/11/23 08:17:56;;;;;;;;;6.25;3.00;;;;;20.81;38.47;99161.88;5062561;28;45169;-56
2022/11/23 08:20:21;;;;;;;;;2.50;2.50;;;;;20.81;38.47;99157.47;5067621;28;47135;-55
2022/11/23 08:22:47;;;;;;;;;2.25;1.50;;;;;20.82;39.00;99151.25;5078189;28;45350;-53
2022/11/23 08:25:12;;;;;;;;;4.00;2.00;;;;;20.83;38.70;99152.06;5063934;28;45868;-49
2022/11/23 08:27:37;;;;;;;;;2.00;2.00;;;;;20.81;38.85;99140.81;5056897;28;45303;-55
2022/11/23 08:30:03;;;;;;;;;2.00;2.00;;;;;20.81;38.85;99132.91;5056726;28;46286;-54
2022/11/23 08:32:29;;;;;;;;;3.00;2.00;;;;;20.82;38.76;99130.16;5056868;28;45433;-53
